createdAt,value
2023-05-21T16:33:00.683Z,19.0929
2023-05-21T16:34:03.595Z,16.7385
2023-05-21T16:35:06.538Z,15.1462
2023-05-21T16:36:09.487Z,12.4615
2023-05-21T16:37:12.455Z,10.8154
2023-05-21T16:38:15.435Z,14.3308
2023-05-21T16:39:18.376Z,16.9692
2023-05-21T16:40:21.318Z,17.2769
2023-05-21T16:41:24.306Z,16.1538
2023-05-21T16:42:27.323Z,18.9615
2023-05-21T16:43:30.223Z,17.1308
2023-05-21T16:44:33.172Z,15.7692
2023-05-21T16:45:36.339Z,16.2462
2023-05-21T16:46:39.174Z,19.2846
2023-05-21T16:47:42.181Z,20.3462
2023-05-21T16:48:44.995Z,21.8385
2023-05-21T16:49:48.007Z,18.9154
2023-05-21T16:50:50.933Z,18.0538
2023-05-21T16:51:53.897Z,17.6538
2023-05-21T16:52:56.837Z,18.2000
2023-05-21T16:53:59.803Z,16.3615
2023-05-21T16:55:02.790Z,10.3462
2023-05-21T16:56:05.781Z,10.8385
2023-05-21T16:57:08.679Z,11.5615
2023-05-21T16:58:11.643Z,15.4462
2023-05-21T16:59:14.605Z,15.8769
2023-05-21T17:00:17.580Z,15.6538
2023-05-21T17:01:20.628Z,17.0385
2023-05-21T17:02:23.560Z,14.5000
2023-05-21T17:03:26.477Z,18.7769
2023-05-21T17:04:29.453Z,27.1692
2023-05-21T17:05:32.388Z,24.8846
2023-05-21T17:06:35.314Z,16.7692
2023-05-21T17:07:38.274Z,15.0000
2023-05-21T17:08:41.245Z,14.7385
2023-05-21T17:09:44.256Z,14.4000
2023-05-21T17:10:47.419Z,14.6923
2023-05-21T17:11:50.140Z,14.7538
2023-05-21T17:12:53.129Z,14.1615
2023-05-21T17:13:56.053Z,13.7308
2023-05-21T17:14:59.017Z,12.8000
2023-05-21T17:16:02.001Z,13.5000
2023-05-21T17:17:04.927Z,9.9308
2023-05-21T17:18:07.932Z,9.4308
2023-05-21T17:19:10.894Z,10.5077
2023-05-21T17:20:13.787Z,12.0846
2023-05-21T17:21:16.767Z,10.9769
2023-05-21T17:22:19.894Z,11.9769
2023-05-21T17:23:22.765Z,16.4462
2023-05-21T17:24:25.615Z,13.3846
2023-05-21T17:25:28.572Z,13.4231
2023-05-21T17:26:31.568Z,12.1231
2023-05-21T17:27:34.509Z,11.2769
2023-05-21T17:28:37.453Z,13.1692
2023-05-21T17:29:40.403Z,14.1462
2023-05-21T17:30:43.373Z,11.7769
2023-05-21T17:31:46.366Z,10.9231
2023-05-21T17:32:49.309Z,11.2692
2023-05-21T17:33:52.261Z,13.1846
2023-05-21T17:34:55.203Z,16.0615
2023-05-21T17:35:58.180Z,17.5846
2023-05-21T17:37:01.111Z,15.0231
2023-05-21T17:38:04.130Z,12.8846
2023-05-21T17:39:07.051Z,11.8615
2023-05-21T17:40:09.999Z,13.3231
2023-05-21T17:41:12.952Z,10.4769
2023-05-21T17:42:15.902Z,11.1385
2023-05-21T17:43:18.858Z,10.9077
2023-05-21T17:44:21.852Z,12.3308
2023-05-21T17:45:24.782Z,14.1615
2023-05-21T17:46:27.768Z,12.9000
2023-05-21T17:47:30.708Z,11.6769
2023-05-21T17:48:33.645Z,10.6538
2023-05-21T17:49:36.683Z,10.1462
2023-05-21T17:50:39.557Z,9.4538
2023-05-21T17:51:42.516Z,11.3923
2023-05-21T17:52:45.501Z,11.0462
2023-05-21T17:53:48.432Z,11.2154
2023-05-21T17:54:51.376Z,9.8154
2023-05-21T17:55:54.551Z,8.3538
2023-05-21T17:56:57.290Z,9.3538
2023-05-21T17:58:00.233Z,9.3077
2023-05-21T17:59:03.195Z,9.8923
2023-05-21T18:00:06.141Z,9.6769
2023-05-21T18:01:09.125Z,10.3154
2023-05-21T18:02:12.085Z,13.1385
2023-05-21T18:03:15.103Z,17.3846
2023-05-21T18:04:18.051Z,20.0692
2023-05-21T18:05:20.932Z,12.1538
2023-05-21T18:06:23.914Z,10.2385
2023-05-21T18:07:26.846Z,13.7923
2023-05-21T18:08:29.878Z,13.8923
2023-05-21T18:09:32.759Z,11.7000
2023-05-21T18:10:35.712Z,8.9923
2023-05-21T18:11:38.693Z,9.5000
2023-05-21T18:12:41.634Z,11.3769
2023-05-21T18:13:44.599Z,9.6615
2023-05-21T18:14:47.675Z,9.6462
2023-05-21T18:15:50.509Z,9.7462
2023-05-21T18:16:53.541Z,10.5000
2023-05-21T18:17:56.541Z,8.6154
2023-05-21T18:18:59.449Z,9.4385
2023-05-21T18:20:02.357Z,8.6923
2023-05-21T18:21:05.275Z,8.6846
2023-05-21T18:22:08.256Z,10.9615
2023-05-21T18:23:11.197Z,11.3231
2023-05-21T18:24:14.160Z,10.1923
2023-05-21T18:25:17.124Z,14.1846
2023-05-21T18:26:20.602Z,10.2000
2023-05-21T18:27:23.078Z,10.3385
2023-05-21T18:28:26.036Z,9.4538
2023-05-21T18:29:28.911Z,9.9769
2023-05-21T18:30:31.875Z,9.3154
2023-05-21T18:31:34.915Z,10.0846
2023-05-21T18:32:37.833Z,9.4077
2023-05-21T18:33:40.734Z,10.5154
2023-05-21T18:34:43.706Z,8.9385
2023-05-21T18:35:46.714Z,9.7000
2023-05-21T18:36:49.600Z,9.4000
2023-05-21T18:37:52.573Z,10.3154
2023-05-21T18:38:55.533Z,9.9385
2023-05-21T18:39:58.488Z,9.7231
2023-05-21T18:41:01.421Z,9.5077
2023-05-21T18:42:12.832Z,9.9615
2023-05-21T18:43:07.316Z,10.8846
2023-05-21T18:44:10.341Z,11.0923
2023-05-21T18:45:13.226Z,10.6923
2023-05-21T18:46:16.247Z,13.2923
2023-05-21T18:47:19.142Z,11.0538
2023-05-21T18:48:22.093Z,14.4923
2023-05-21T18:49:25.043Z,15.2538
2023-05-21T18:50:27.961Z,13.5000
2023-05-21T18:51:30.926Z,10.0538
2023-05-21T18:52:33.870Z,9.9231
2023-05-21T18:53:36.811Z,10.7846
2023-05-21T18:54:39.752Z,11.4000
2023-05-21T18:55:42.727Z,10.5769
2023-05-21T18:56:45.666Z,9.8692
2023-05-21T18:57:48.607Z,9.0000
2023-05-21T18:58:51.556Z,8.7000
2023-05-21T18:59:54.511Z,9.4077
2023-05-21T19:00:57.450Z,8.8154
2023-05-21T19:02:00.451Z,11.4923
2023-05-21T19:03:03.408Z,10.1000
2023-05-21T19:04:06.326Z,9.8385
2023-05-21T19:05:09.333Z,11.0308
2023-05-21T19:06:12.322Z,12.1538
2023-05-21T19:07:15.139Z,10.1538
2023-05-21T19:08:18.086Z,10.4000
2023-05-21T19:09:21.115Z,9.0077
2023-05-21T19:10:24.089Z,10.2538
2023-05-21T19:11:27.072Z,10.8077
2023-05-21T19:12:29.902Z,10.1615
2023-05-21T19:13:32.928Z,10.7462
2023-05-21T19:14:35.798Z,10.2000
2023-05-21T19:15:38.882Z,11.1000
2023-05-21T19:16:41.817Z,11.4462
2023-05-21T19:17:44.652Z,9.2462
2023-05-21T19:18:47.646Z,10.7154
2023-05-21T19:19:50.599Z,11.1077
2023-05-21T19:20:53.491Z,10.0308
2023-05-21T19:21:56.501Z,8.9385
2023-05-21T19:22:59.421Z,10.4231
2023-05-21T19:24:04.853Z,12.1154
2023-05-21T19:25:05.314Z,9.4000
2023-05-21T19:26:08.270Z,10.1846
2023-05-21T19:27:11.332Z,11.0462
2023-05-21T19:28:14.232Z,10.5231
2023-05-21T19:29:17.138Z,10.6308
2023-05-21T19:30:20.170Z,8.1385
2023-05-21T19:31:23.276Z,10.9308
2023-05-21T19:32:26.055Z,8.1000
2023-05-21T19:33:29.049Z,9.1538
2023-05-21T19:34:32.031Z,8.8769
2023-05-21T19:35:34.944Z,9.4308
2023-05-21T19:36:51.647Z,10.0231
2023-05-21T19:37:40.734Z,9.5000
2023-05-21T19:38:43.677Z,9.4385
2023-05-21T19:39:46.696Z,9.8385
2023-05-21T19:40:49.575Z,8.6538
2023-05-21T19:41:52.549Z,9.7077
2023-05-21T19:42:55.490Z,8.9385
2023-05-21T19:43:58.436Z,9.3308
2023-05-21T19:45:01.363Z,8.1846
2023-05-21T19:46:04.383Z,9.6615
2023-05-21T19:47:07.286Z,9.8308
2023-05-21T19:48:10.275Z,10.3385
2023-05-21T19:49:13.314Z,9.7846
2023-05-21T19:50:16.214Z,18.7692
2023-05-21T19:51:19.138Z,35.8923
2023-05-21T19:52:22.087Z,52.1077
2023-05-21T19:53:24.978Z,18.6462
2023-05-21T19:54:27.969Z,14.9692
2023-05-21T19:55:30.883Z,11.1615
2023-05-21T19:56:33.847Z,10.7462
2023-05-21T19:57:36.778Z,11.6308
2023-05-21T19:58:39.735Z,11.4769
2023-05-21T19:59:42.693Z,10.9077
2023-05-21T20:00:45.957Z,9.0692
2023-05-21T20:01:48.602Z,8.4154
2023-05-21T20:02:51.609Z,10.3923
2023-05-21T20:03:54.604Z,10.5154
2023-05-21T20:04:57.563Z,9.4154
2023-05-21T20:06:00.404Z,8.2462
2023-05-21T20:07:03.352Z,9.6000
2023-05-21T20:08:06.334Z,8.4615
2023-05-21T20:09:09.283Z,9.2538
2023-05-21T20:10:12.287Z,9.4077
2023-05-21T20:11:15.157Z,9.1846
2023-05-21T20:12:18.064Z,9.5615
2023-05-21T20:13:21.238Z,8.6538
2023-05-21T20:14:23.957Z,8.8615
2023-05-21T20:15:27.072Z,9.2923
2023-05-21T20:16:29.864Z,10.3077
2023-05-21T20:17:32.937Z,10.0692
2023-05-21T20:18:35.765Z,9.6615
2023-05-21T20:19:38.768Z,9.5692
2023-05-21T20:20:41.843Z,8.9692
2023-05-21T20:21:44.600Z,9.8538
2023-05-21T20:22:47.551Z,9.4769
2023-05-21T20:23:50.841Z,9.2077
2023-05-21T20:24:53.577Z,9.0846
2023-05-21T20:25:56.401Z,9.3846
2023-05-21T20:26:59.349Z,9.8692
2023-05-21T20:28:02.302Z,10.7000
2023-05-21T20:29:05.256Z,8.5462
2023-05-21T20:30:08.511Z,8.8846
2023-05-21T20:31:11.239Z,9.5692
2023-05-21T20:32:14.080Z,8.9615
2023-05-21T20:33:17.457Z,9.5923
2023-05-21T20:34:19.996Z,8.9308
2023-05-21T20:35:22.967Z,9.8000
2023-05-21T20:36:25.987Z,10.0615
2023-05-21T20:37:28.927Z,11.0000
2023-05-21T20:38:31.934Z,9.7154
2023-05-21T20:39:34.849Z,8.4769
2023-05-21T20:40:37.916Z,9.6769
2023-05-21T20:41:40.749Z,9.7923
2023-05-21T20:42:43.701Z,10.7538
2023-05-21T20:43:46.642Z,9.9462
2023-05-21T20:44:49.602Z,10.1692
2023-05-21T20:45:52.582Z,10.0769
2023-05-21T20:46:55.563Z,9.2692
2023-05-21T20:47:58.629Z,13.8923
2023-05-21T20:49:01.537Z,11.9154
2023-05-21T20:50:04.391Z,10.7692
2023-05-21T20:51:07.384Z,10.7846
2023-05-21T20:52:10.318Z,11.8462
2023-05-21T20:53:13.239Z,10.4385
2023-05-21T20:54:16.692Z,11.2615
2023-05-21T20:55:19.169Z,10.0769
2023-05-21T20:56:39.896Z,10.9385
2023-05-21T20:57:25.163Z,9.8154
2023-05-21T20:58:28.021Z,9.5077
2023-05-21T20:59:30.951Z,9.8846
2023-05-21T21:00:33.926Z,10.1538
2023-05-21T21:01:36.875Z,10.6231
2023-05-21T21:02:40.024Z,9.6308
2023-05-21T21:03:42.846Z,9.3615
2023-05-21T21:04:45.741Z,9.6231
2023-05-21T21:05:48.674Z,10.2538
2023-05-21T21:06:51.641Z,9.9154
2023-05-21T21:07:55.887Z,10.2923
2023-05-21T21:08:57.564Z,9.4615
2023-05-21T21:10:00.571Z,10.4692
2023-05-21T21:11:03.480Z,10.1462
2023-05-21T21:12:17.861Z,9.9692
2023-05-21T21:13:09.397Z,10.3154
2023-05-21T21:14:12.317Z,8.7462
2023-05-21T21:15:15.270Z,10.8769
2023-05-21T21:16:18.281Z,9.8846
2023-05-21T21:17:21.278Z,10.0692
2023-05-21T21:18:24.130Z,10.5231
2023-05-21T21:19:27.259Z,10.8385
2023-05-21T21:20:30.181Z,10.1538
2023-05-21T21:21:32.980Z,10.9538
2023-05-21T21:22:35.910Z,9.1308
2023-05-21T21:23:38.866Z,9.7462
2023-05-21T21:24:41.824Z,10.2000
2023-05-21T21:25:44.766Z,9.9846
2023-05-21T21:26:47.705Z,10.6385
2023-05-21T21:27:50.658Z,9.4462
2023-05-21T21:28:53.606Z,10.4846
2023-05-21T21:29:56.553Z,9.1615
2023-05-21T21:30:59.517Z,12.0231
2023-05-21T21:32:02.575Z,9.7385
2023-05-21T21:33:05.575Z,10.1692
2023-05-21T21:34:08.406Z,9.6615
2023-05-21T21:35:11.309Z,9.7538
2023-05-21T21:36:14.429Z,9.1231
2023-05-21T21:37:17.187Z,10.0692
2023-05-21T21:38:20.165Z,9.4923
2023-05-21T21:39:23.097Z,10.4385
2023-05-21T21:40:26.034Z,11.3462
2023-05-21T21:41:28.973Z,9.4769
2023-05-21T21:42:32.031Z,10.1615
2023-05-21T21:43:34.884Z,11.2846
2023-05-21T21:44:37.828Z,10.4846
2023-05-21T21:45:40.776Z,11.6538
2023-05-21T21:46:43.739Z,10.8846
2023-05-21T21:47:46.814Z,10.7000
2023-05-21T21:48:49.633Z,11.6385
2023-05-21T21:49:52.570Z,11.3231
2023-05-21T21:50:55.723Z,11.3077
2023-05-21T21:51:58.478Z,11.7231
2023-05-21T21:53:01.420Z,11.4923
2023-05-21T21:54:04.386Z,11.7154
2023-05-21T21:55:07.347Z,10.6769
2023-05-21T21:56:10.262Z,10.4846
2023-05-21T21:57:13.216Z,10.8154
2023-05-21T21:58:16.163Z,10.7923
2023-05-21T21:59:19.129Z,10.2231
2023-05-21T22:00:22.075Z,10.9615
2023-05-21T22:01:25.118Z,11.7000
2023-05-21T22:02:28.022Z,11.3462
2023-05-21T22:03:30.919Z,12.3308
2023-05-21T22:04:33.905Z,10.7462
2023-05-21T22:05:36.818Z,11.2846
2023-05-21T22:06:39.780Z,12.4462
2023-05-21T22:07:42.737Z,10.9923
2023-05-21T22:08:45.693Z,10.0385
2023-05-21T22:09:48.618Z,10.3538
2023-05-21T22:10:51.568Z,10.5923
2023-05-21T22:11:54.516Z,11.0462
2023-05-21T22:12:57.433Z,12.1385
2023-05-21T22:14:00.436Z,11.7615
2023-05-21T22:15:03.345Z,10.9538
2023-05-21T22:16:06.335Z,10.9385
2023-05-21T22:17:09.352Z,11.0000
2023-05-21T22:18:12.250Z,10.7077
2023-05-21T22:19:15.163Z,10.7769
2023-05-21T22:20:18.087Z,12.1231
2023-05-21T22:21:21.021Z,11.2154
2023-05-21T22:22:23.973Z,12.0462
2023-05-21T22:23:26.913Z,11.0692
2023-05-21T22:24:32.987Z,11.0923
2023-05-21T22:25:32.850Z,12.2692
2023-05-21T22:26:35.790Z,11.3308
2023-05-21T22:27:38.764Z,10.3308
2023-05-21T22:28:41.676Z,10.8308
2023-05-21T22:29:44.620Z,10.3846
2023-05-21T22:30:47.600Z,11.4462
2023-05-21T22:31:50.544Z,11.0538
2023-05-21T22:32:53.511Z,10.4923
2023-05-21T22:33:56.438Z,9.8462
2023-05-21T22:34:59.382Z,10.0308
2023-05-21T22:36:02.331Z,9.9000
2023-05-21T22:37:05.272Z,10.5769
2023-05-21T22:38:08.218Z,9.1923
2023-05-21T22:39:11.355Z,10.4308
2023-05-21T22:40:14.102Z,11.4385
2023-05-21T22:41:17.078Z,9.9692
2023-05-21T22:42:20.019Z,10.4385
2023-05-21T22:43:22.996Z,10.9231
2023-05-21T22:44:25.921Z,10.4308
2023-05-21T22:45:28.892Z,10.5923
2023-05-21T22:46:31.844Z,11.5231
2023-05-21T22:47:34.830Z,10.1923
2023-05-21T22:48:37.713Z,10.1000
2023-05-21T22:49:40.750Z,10.6154
2023-05-21T22:50:43.623Z,10.1462
2023-05-21T22:51:46.598Z,10.0385
2023-05-21T22:52:49.522Z,10.7385
2023-05-21T22:53:52.499Z,9.1154
2023-05-21T22:54:55.420Z,10.2462
2023-05-21T22:55:58.368Z,10.2923
2023-05-21T22:57:01.318Z,10.5308
2023-05-21T22:58:04.287Z,11.4692
2023-05-21T22:59:07.223Z,9.5077
2023-05-21T23:00:10.185Z,9.1769
2023-05-21T23:01:13.115Z,9.2538
2023-05-21T23:02:16.173Z,9.9154
2023-05-21T23:03:18.998Z,10.8308
2023-05-21T23:04:32.136Z,9.7462
2023-05-21T23:05:24.932Z,8.7231
2023-05-21T23:06:27.901Z,9.2462
2023-05-21T23:07:30.825Z,8.5923
2023-05-21T23:08:33.776Z,8.3077
2023-05-21T23:09:36.749Z,8.4923
2023-05-21T23:10:39.978Z,9.2615
2023-05-21T23:11:42.646Z,10.1154
2023-05-21T23:12:45.620Z,9.3462
2023-05-21T23:13:48.577Z,8.6077
2023-05-21T23:14:51.516Z,8.7385
2023-05-21T23:15:54.534Z,8.7615
2023-05-21T23:16:57.401Z,9.1385
2023-05-21T23:18:00.419Z,9.6077
2023-05-21T23:19:03.369Z,8.9846
2023-05-21T23:20:06.300Z,8.1923
2023-05-21T23:21:09.281Z,9.1462
2023-05-21T23:22:12.204Z,8.0231
2023-05-21T23:23:15.116Z,7.6846
2023-05-21T23:24:18.079Z,7.4846
2023-05-21T23:25:21.106Z,7.4846
2023-05-21T23:26:23.977Z,9.0538
2023-05-21T23:27:26.936Z,8.1923
2023-05-21T23:28:29.870Z,7.5538
2023-05-21T23:29:32.835Z,7.3769
2023-05-21T23:30:35.825Z,8.5846
2023-05-21T23:31:38.743Z,8.1462
2023-05-21T23:32:41.726Z,9.5231
2023-05-21T23:33:44.633Z,8.5308
2023-05-21T23:34:47.610Z,7.7462
2023-05-21T23:35:50.617Z,8.0231
2023-05-21T23:36:53.498Z,8.4077
2023-05-21T23:37:56.464Z,7.6000
2023-05-21T23:38:59.397Z,7.0308
2023-05-21T23:40:02.360Z,7.4692
2023-05-21T23:41:05.279Z,7.0538
2023-05-21T23:42:08.242Z,7.9769
2023-05-21T23:43:11.182Z,8.7077
2023-05-21T23:44:14.199Z,7.4923
2023-05-21T23:45:17.097Z,8.1000
2023-05-21T23:46:20.106Z,7.9000
2023-05-21T23:47:22.997Z,7.2000
2023-05-21T23:48:25.978Z,7.4077
2023-05-21T23:49:28.886Z,7.0154
2023-05-21T23:50:31.864Z,8.9538
2023-05-21T23:51:34.826Z,7.1000
2023-05-21T23:52:37.781Z,7.6462
2023-05-21T23:53:40.701Z,8.6000
2023-05-21T23:54:43.655Z,8.4462
2023-05-21T23:55:46.599Z,7.7385
2023-05-21T23:56:49.569Z,7.4385
2023-05-21T23:57:52.508Z,7.9000
2023-05-21T23:58:55.469Z,6.9846
2023-05-21T23:59:58.400Z,7.0846
